Terminal Aerodrome Forecast
Issued by NWS

Home | Current Version | Previous Version | Text Only | Print | Product List | Glossary On
Versions: 1 2 3 4 5 6 7 8 9 10 11
000
FTUS44 KTSA 271100 RRA
TAFMLC
TAF
KMLC 271146Z 2712/2812 33011KT 6SM -RA BKN012 OVC030
     FM271400 36010KT P6SM SCT035 OVC050
      TEMPO 2714/2717 6SM -RA BKN035 OVC050
     FM272100 35010KT P6SM SCT050 OVC090
     FM280600 36008KT P6SM SCT100=

USA.gov is the U.S. government's official web portal to all federal, state and local government web resources and services.